sensor_id;sensor_type;location;lat;lon;timestamp;temperature;humidity
26164;DHT22;13914;48.178;11.716;2022-07-23T00:01:18;24.20;48.70
26164;DHT22;13914;48.178;11.716;2022-07-23T00:03:44;24.10;49.00
26164;DHT22;13914;48.178;11.716;2022-07-23T00:06:10;24.10;48.80
26164;DHT22;13914;48.178;11.716;2022-07-23T00:08:36;24.10;48.70
26164;DHT22;13914;48.178;11.716;2022-07-23T00:11:01;24.10;48.80
26164;DHT22;13914;48.178;11.716;2022-07-23T00:13:27;24.10;49.10
26164;DHT22;13914;48.178;11.716;2022-07-23T00:15:53;24.00;49.10
26164;DHT22;13914;48.178;11.716;2022-07-23T00:18:19;24.00;49.10
26164;DHT22;13914;48.178;11.716;2022-07-23T00:20:44;24.00;48.80
26164;DHT22;13914;48.178;11.716;2022-07-23T00:23:10;24.00;48.90
26164;DHT22;13914;48.178;11.716;2022-07-23T00:25:36;24.00;49.00
26164;DHT22;13914;48.178;11.716;2022-07-23T00:28:02;24.00;49.00
26164;DHT22;13914;48.178;11.716;2022-07-23T00:30:29;24.00;48.90
26164;DHT22;13914;48.178;11.716;2022-07-23T00:32:56;24.00;48.80
26164;DHT22;13914;48.178;11.716;2022-07-23T00:35:28;23.90;49.10
26164;DHT22;13914;48.178;11.716;2022-07-23T00:37:55;23.90;49.00
26164;DHT22;13914;48.178;11.716;2022-07-23T00:40:22;23.90;49.00
26164;DHT22;13914;48.178;11.716;2022-07-23T00:42:47;23.90;48.90
26164;DHT22;13914;48.178;11.716;2022-07-23T00:45:13;23.80;48.70
26164;DHT22;13914;48.178;11.716;2022-07-23T00:47:39;23.80;48.90
26164;DHT22;13914;48.178;11.716;2022-07-23T00:50:05;23.80;49.00
26164;DHT22;13914;48.178;11.716;2022-07-23T00:52:33;23.80;48.90
26164;DHT22;13914;48.178;11.716;2022-07-23T00:55:00;23.70;49.10
26164;DHT22;13914;48.178;11.716;2022-07-23T00:57:25;23.70;48.90
26164;DHT22;13914;48.178;11.716;2022-07-23T00:59:51;23.70;49.20
26164;DHT22;13914;48.178;11.716;2022-07-23T01:02:17;23.70;49.00
26164;DHT22;13914;48.178;11.716;2022-07-23T01:04:42;23.60;49.40
26164;DHT22;13914;48.178;11.716;2022-07-23T01:07:08;23.60;49.40
26164;DHT22;13914;48.178;11.716;2022-07-23T01:09:34;23.50;49.20
26164;DHT22;13914;48.178;11.716;2022-07-23T01:12:00;23.60;49.50
26164;DHT22;13914;48.178;11.716;2022-07-23T01:14:25;23.50;49.60
26164;DHT22;13914;48.178;11.716;2022-07-23T01:16:52;23.50;49.60
26164;DHT22;13914;48.178;11.716;2022-07-23T01:19:17;23.40;49.60
26164;DHT22;13914;48.178;11.716;2022-07-23T01:21:44;23.40;49.90
26164;DHT22;13914;48.178;11.716;2022-07-23T01:24:12;23.40;50.30
26164;DHT22;13914;48.178;11.716;2022-07-23T01:26:38;23.40;50.10
26164;DHT22;13914;48.178;11.716;2022-07-23T01:29:06;23.40;50.20
26164;DHT22;13914;48.178;11.716;2022-07-23T01:31:32;23.40;50.30
26164;DHT22;13914;48.178;11.716;2022-07-23T01:33:58;23.40;50.50
26164;DHT22;13914;48.178;11.716;2022-07-23T01:36:24;23.40;51.10
26164;DHT22;13914;48.178;11.716;2022-07-23T01:38:50;23.40;51.10
26164;DHT22;13914;48.178;11.716;2022-07-23T01:41:16;23.40;51.10
26164;DHT22;13914;48.178;11.716;2022-07-23T01:43:41;23.40;51.10
26164;DHT22;13914;48.178;11.716;2022-07-23T01:46:07;23.30;51.00
26164;DHT22;13914;48.178;11.716;2022-07-23T01:48:33;23.30;51.30
26164;DHT22;13914;48.178;11.716;2022-07-23T01:50:59;23.20;51.40
26164;DHT22;13914;48.178;11.716;2022-07-23T01:53:24;23.20;51.40
26164;DHT22;13914;48.178;11.716;2022-07-23T01:55:50;23.10;51.40
26164;DHT22;13914;48.178;11.716;2022-07-23T01:58:16;23.10;51.50
26164;DHT22;13914;48.178;11.716;2022-07-23T02:00:41;23.00;51.40
26164;DHT22;13914;48.178;11.716;2022-07-23T02:03:07;23.00;51.20
26164;DHT22;13914;48.178;11.716;2022-07-23T02:05:33;22.90;51.30
26164;DHT22;13914;48.178;11.716;2022-07-23T02:07:59;22.90;51.20
26164;DHT22;13914;48.178;11.716;2022-07-23T02:10:25;22.90;51.40
26164;DHT22;13914;48.178;11.716;2022-07-23T02:12:51;22.80;51.80
26164;DHT22;13914;48.178;11.716;2022-07-23T02:15:16;22.80;51.90
26164;DHT22;13914;48.178;11.716;2022-07-23T02:17:42;22.70;52.20
26164;DHT22;13914;48.178;11.716;2022-07-23T02:20:08;22.60;52.50
26164;DHT22;13914;48.178;11.716;2022-07-23T02:22:35;22.70;52.70
26164;DHT22;13914;48.178;11.716;2022-07-23T02:25:02;22.60;52.70
26164;DHT22;13914;48.178;11.716;2022-07-23T02:27:29;22.50;53.70
26164;DHT22;13914;48.178;11.716;2022-07-23T02:29:54;22.50;53.30
26164;DHT22;13914;48.178;11.716;2022-07-23T02:32:20;22.40;54.30
26164;DHT22;13914;48.178;11.716;2022-07-23T02:34:48;22.30;55.20
26164;DHT22;13914;48.178;11.716;2022-07-23T02:37:15;22.30;55.50
26164;DHT22;13914;48.178;11.716;2022-07-23T02:39:41;22.20;56.10
26164;DHT22;13914;48.178;11.716;2022-07-23T02:42:06;22.10;56.60
26164;DHT22;13914;48.178;11.716;2022-07-23T02:44:32;22.00;56.60
26164;DHT22;13914;48.178;11.716;2022-07-23T02:46:58;22.00;56.60
26164;DHT22;13914;48.178;11.716;2022-07-23T02:49:24;22.00;56.40
26164;DHT22;13914;48.178;11.716;2022-07-23T02:51:49;22.00;56.70
26164;DHT22;13914;48.178;11.716;2022-07-23T02:54:15;22.00;56.40
26164;DHT22;13914;48.178;11.716;2022-07-23T02:56:41;22.00;55.80
26164;DHT22;13914;48.178;11.716;2022-07-23T02:59:07;22.00;56.10
26164;DHT22;13914;48.178;11.716;2022-07-23T03:01:32;22.00;56.00
26164;DHT22;13914;48.178;11.716;2022-07-23T03:03:58;21.90;56.60
26164;DHT22;13914;48.178;11.716;2022-07-23T03:06:24;21.80;55.90
26164;DHT22;13914;48.178;11.716;2022-07-23T03:08:49;21.80;55.50
26164;DHT22;13914;48.178;11.716;2022-07-23T03:11:15;21.90;55.40
26164;DHT22;13914;48.178;11.716;2022-07-23T03:13:41;21.80;54.80
26164;DHT22;13914;48.178;11.716;2022-07-23T03:16:07;21.90;54.80
26164;DHT22;13914;48.178;11.716;2022-07-23T03:18:33;21.80;54.90
26164;DHT22;13914;48.178;11.716;2022-07-23T03:20:59;21.80;55.00
26164;DHT22;13914;48.178;11.716;2022-07-23T03:23:25;21.80;55.00
26164;DHT22;13914;48.178;11.716;2022-07-23T03:25:50;21.80;55.00
26164;DHT22;13914;48.178;11.716;2022-07-23T03:28:17;21.70;54.80
26164;DHT22;13914;48.178;11.716;2022-07-23T03:30:43;21.70;55.10
26164;DHT22;13914;48.178;11.716;2022-07-23T03:33:12;21.60;55.00
26164;DHT22;13914;48.178;11.716;2022-07-23T03:35:38;21.60;54.90
26164;DHT22;13914;48.178;11.716;2022-07-23T03:38:04;21.50;55.00
26164;DHT22;13914;48.178;11.716;2022-07-23T03:40:29;21.50;54.90
26164;DHT22;13914;48.178;11.716;2022-07-23T03:42:55;21.50;55.00
26164;DHT22;13914;48.178;11.716;2022-07-23T03:45:21;21.40;55.10
26164;DHT22;13914;48.178;11.716;2022-07-23T03:47:46;21.40;55.00
26164;DHT22;13914;48.178;11.716;2022-07-23T03:50:12;21.40;55.10
26164;DHT22;13914;48.178;11.716;2022-07-23T03:52:38;21.30;55.10
26164;DHT22;13914;48.178;11.716;2022-07-23T03:55:03;21.30;55.30
26164;DHT22;13914;48.178;11.716;2022-07-23T03:57:30;21.30;55.90
26164;DHT22;13914;48.178;11.716;2022-07-23T03:59:55;21.20;55.20
26164;DHT22;13914;48.178;11.716;2022-07-23T04:02:21;21.20;55.20
26164;DHT22;13914;48.178;11.716;2022-07-23T04:04:47;21.20;55.20
26164;DHT22;13914;48.178;11.716;2022-07-23T04:07:13;21.20;55.40
26164;DHT22;13914;48.178;11.716;2022-07-23T04:09:38;21.20;55.80
26164;DHT22;13914;48.178;11.716;2022-07-23T04:12:06;21.10;55.50
26164;DHT22;13914;48.178;11.716;2022-07-23T04:14:32;21.10;55.30
26164;DHT22;13914;48.178;11.716;2022-07-23T04:16:58;21.10;55.50
26164;DHT22;13914;48.178;11.716;2022-07-23T04:19:24;21.00;55.20
26164;DHT22;13914;48.178;11.716;2022-07-23T04:21:50;21.00;55.40
26164;DHT22;13914;48.178;11.716;2022-07-23T04:24:16;21.00;55.40
26164;DHT22;13914;48.178;11.716;2022-07-23T04:26:41;21.00;55.40
26164;DHT22;13914;48.178;11.716;2022-07-23T04:29:07;21.00;55.50
26164;DHT22;13914;48.178;11.716;2022-07-23T04:31:33;21.00;55.50
26164;DHT22;13914;48.178;11.716;2022-07-23T04:33:58;20.90;55.40
26164;DHT22;13914;48.178;11.716;2022-07-23T04:36:24;20.90;55.40
26164;DHT22;13914;48.178;11.716;2022-07-23T04:38:50;20.90;55.40
26164;DHT22;13914;48.178;11.716;2022-07-23T04:41:15;20.90;55.50
26164;DHT22;13914;48.178;11.716;2022-07-23T04:43:41;20.80;55.70
26164;DHT22;13914;48.178;11.716;2022-07-23T04:46:07;20.80;55.40
26164;DHT22;13914;48.178;11.716;2022-07-23T04:48:32;20.80;55.70
26164;DHT22;13914;48.178;11.716;2022-07-23T04:50:58;20.80;55.30
26164;DHT22;13914;48.178;11.716;2022-07-23T04:53:24;20.80;55.30
26164;DHT22;13914;48.178;11.716;2022-07-23T04:55:49;20.80;55.50
26164;DHT22;13914;48.178;11.716;2022-07-23T04:58:15;20.70;55.50
26164;DHT22;13914;48.178;11.716;2022-07-23T05:00:41;20.70;55.50
26164;DHT22;13914;48.178;11.716;2022-07-23T05:03:06;20.70;55.50
26164;DHT22;13914;48.178;11.716;2022-07-23T05:05:32;20.70;55.50
26164;DHT22;13914;48.178;11.716;2022-07-23T05:07:58;20.70;55.50
26164;DHT22;13914;48.178;11.716;2022-07-23T05:10:23;20.70;55.40
26164;DHT22;13914;48.178;11.716;2022-07-23T05:12:49;20.70;55.80
26164;DHT22;13914;48.178;11.716;2022-07-23T05:15:15;20.70;55.40
26164;DHT22;13914;48.178;11.716;2022-07-23T05:17:40;20.70;55.40
26164;DHT22;13914;48.178;11.716;2022-07-23T05:20:06;20.60;55.20
26164;DHT22;13914;48.178;11.716;2022-07-23T05:22:32;20.60;55.30
26164;DHT22;13914;48.178;11.716;2022-07-23T05:24:58;20.60;55.30
26164;DHT22;13914;48.178;11.716;2022-07-23T05:27:24;20.60;55.10
26164;DHT22;13914;48.178;11.716;2022-07-23T05:29:49;20.60;55.00
26164;DHT22;13914;48.178;11.716;2022-07-23T05:32:15;20.60;55.10
26164;DHT22;13914;48.178;11.716;2022-07-23T05:34:41;20.60;55.10
26164;DHT22;13914;48.178;11.716;2022-07-23T05:37:06;20.60;55.00
26164;DHT22;13914;48.178;11.716;2022-07-23T05:39:32;20.60;55.00
26164;DHT22;13914;48.178;11.716;2022-07-23T05:41:58;20.60;54.90
26164;DHT22;13914;48.178;11.716;2022-07-23T05:44:23;20.60;54.90
26164;DHT22;13914;48.178;11.716;2022-07-23T05:46:49;20.60;55.00
26164;DHT22;13914;48.178;11.716;2022-07-23T05:49:15;20.60;55.00
26164;DHT22;13914;48.178;11.716;2022-07-23T05:51:41;20.60;54.80
26164;DHT22;13914;48.178;11.716;2022-07-23T05:54:06;20.60;54.90
26164;DHT22;13914;48.178;11.716;2022-07-23T05:56:32;20.60;55.00
26164;DHT22;13914;48.178;11.716;2022-07-23T05:58:58;20.60;54.90
26164;DHT22;13914;48.178;11.716;2022-07-23T06:01:24;20.60;55.00
26164;DHT22;13914;48.178;11.716;2022-07-23T06:03:50;20.60;55.20
26164;DHT22;13914;48.178;11.716;2022-07-23T06:06:15;20.60;55.10
26164;DHT22;13914;48.178;11.716;2022-07-23T06:08:41;20.60;55.10
26164;DHT22;13914;48.178;11.716;2022-07-23T06:11:07;20.60;55.10
26164;DHT22;13914;48.178;11.716;2022-07-23T06:13:32;20.60;55.10
26164;DHT22;13914;48.178;11.716;2022-07-23T06:15:58;20.60;55.00
26164;DHT22;13914;48.178;11.716;2022-07-23T06:18:24;20.60;54.80
26164;DHT22;13914;48.178;11.716;2022-07-23T06:20:51;20.60;55.00
26164;DHT22;13914;48.178;11.716;2022-07-23T06:23:17;20.60;55.10
26164;DHT22;13914;48.178;11.716;2022-07-23T06:25:42;20.60;55.00
26164;DHT22;13914;48.178;11.716;2022-07-23T06:28:08;20.50;55.50
26164;DHT22;13914;48.178;11.716;2022-07-23T06:30:34;20.60;55.30
26164;DHT22;13914;48.178;11.716;2022-07-23T06:32:59;20.60;55.40
26164;DHT22;13914;48.178;11.716;2022-07-23T06:35:25;20.60;55.10
26164;DHT22;13914;48.178;11.716;2022-07-23T06:37:50;20.60;55.50
26164;DHT22;13914;48.178;11.716;2022-07-23T06:40:16;20.60;55.20
26164;DHT22;13914;48.178;11.716;2022-07-23T06:42:42;20.60;54.60
26164;DHT22;13914;48.178;11.716;2022-07-23T06:45:08;20.60;54.60
26164;DHT22;13914;48.178;11.716;2022-07-23T06:47:34;20.60;54.80
26164;DHT22;13914;48.178;11.716;2022-07-23T06:49:59;20.70;55.30
26164;DHT22;13914;48.178;11.716;2022-07-23T06:52:25;20.70;54.60
26164;DHT22;13914;48.178;11.716;2022-07-23T06:54:51;20.70;54.60
26164;DHT22;13914;48.178;11.716;2022-07-23T06:57:17;20.70;54.80
26164;DHT22;13914;48.178;11.716;2022-07-23T06:59:43;20.80;55.00
26164;DHT22;13914;48.178;11.716;2022-07-23T07:02:09;20.70;54.70
26164;DHT22;13914;48.178;11.716;2022-07-23T07:04:35;20.80;56.00
26164;DHT22;13914;48.178;11.716;2022-07-23T07:07:01;20.80;54.80
26164;DHT22;13914;48.178;11.716;2022-07-23T07:09:26;20.80;56.10
26164;DHT22;13914;48.178;11.716;2022-07-23T07:11:52;20.90;54.80
26164;DHT22;13914;48.178;11.716;2022-07-23T07:14:18;20.90;54.50
26164;DHT22;13914;48.178;11.716;2022-07-23T07:16:43;20.90;54.80
26164;DHT22;13914;48.178;11.716;2022-07-23T07:19:09;21.00;54.50
26164;DHT22;13914;48.178;11.716;2022-07-23T07:21:35;21.00;54.10
26164;DHT22;13914;48.178;11.716;2022-07-23T07:24:01;21.00;54.60
26164;DHT22;13914;48.178;11.716;2022-07-23T07:26:27;21.10;54.40
26164;DHT22;13914;48.178;11.716;2022-07-23T07:28:53;21.10;54.90
26164;DHT22;13914;48.178;11.716;2022-07-23T07:31:18;21.20;54.30
26164;DHT22;13914;48.178;11.716;2022-07-23T07:33:44;21.20;54.10
26164;DHT22;13914;48.178;11.716;2022-07-23T07:36:10;21.30;54.00
26164;DHT22;13914;48.178;11.716;2022-07-23T07:38:35;21.30;54.00
26164;DHT22;13914;48.178;11.716;2022-07-23T07:41:01;21.40;53.80
26164;DHT22;13914;48.178;11.716;2022-07-23T07:43:27;21.50;54.00
26164;DHT22;13914;48.178;11.716;2022-07-23T07:45:53;21.50;53.90
26164;DHT22;13914;48.178;11.716;2022-07-23T07:48:18;21.60;53.70
26164;DHT22;13914;48.178;11.716;2022-07-23T07:50:44;21.60;53.60
26164;DHT22;13914;48.178;11.716;2022-07-23T07:53:10;21.70;53.70
26164;DHT22;13914;48.178;11.716;2022-07-23T07:55:35;21.70;53.30
26164;DHT22;13914;48.178;11.716;2022-07-23T07:58:01;21.80;53.30
26164;DHT22;13914;48.178;11.716;2022-07-23T08:00:27;21.80;53.40
26164;DHT22;13914;48.178;11.716;2022-07-23T08:02:53;21.90;53.60
26164;DHT22;13914;48.178;11.716;2022-07-23T08:05:20;21.90;53.50
26164;DHT22;13914;48.178;11.716;2022-07-23T08:07:47;21.90;53.30
26164;DHT22;13914;48.178;11.716;2022-07-23T08:10:12;21.90;53.20
26164;DHT22;13914;48.178;11.716;2022-07-23T08:15:06;22.00;53.20
26164;DHT22;13914;48.178;11.716;2022-07-23T08:17:32;22.00;52.90
26164;DHT22;13914;48.178;11.716;2022-07-23T08:19:58;22.00;53.60
26164;DHT22;13914;48.178;11.716;2022-07-23T08:22:23;22.00;52.90
26164;DHT22;13914;48.178;11.716;2022-07-23T08:24:49;22.00;52.80
26164;DHT22;13914;48.178;11.716;2022-07-23T08:27:15;22.10;52.70
26164;DHT22;13914;48.178;11.716;2022-07-23T08:29:40;22.10;52.80
26164;DHT22;13914;48.178;11.716;2022-07-23T08:32:06;22.00;53.20
26164;DHT22;13914;48.178;11.716;2022-07-23T08:34:32;22.10;52.90
26164;DHT22;13914;48.178;11.716;2022-07-23T08:36:57;22.10;52.70
26164;DHT22;13914;48.178;11.716;2022-07-23T08:39:23;22.10;52.70
26164;DHT22;13914;48.178;11.716;2022-07-23T08:41:49;22.10;52.60
26164;DHT22;13914;48.178;11.716;2022-07-23T08:44:18;22.10;52.60
26164;DHT22;13914;48.178;11.716;2022-07-23T08:46:44;22.10;52.80
26164;DHT22;13914;48.178;11.716;2022-07-23T08:49:10;22.10;52.60
26164;DHT22;13914;48.178;11.716;2022-07-23T08:51:36;22.20;52.60
26164;DHT22;13914;48.178;11.716;2022-07-23T08:54:02;22.20;52.70
26164;DHT22;13914;48.178;11.716;2022-07-23T08:56:27;22.20;52.70
26164;DHT22;13914;48.178;11.716;2022-07-23T08:58:53;22.30;52.90
26164;DHT22;13914;48.178;11.716;2022-07-23T09:01:20;22.30;52.60
26164;DHT22;13914;48.178;11.716;2022-07-23T09:03:45;22.40;52.70
26164;DHT22;13914;48.178;11.716;2022-07-23T09:06:11;22.40;52.90
26164;DHT22;13914;48.178;11.716;2022-07-23T09:08:38;22.50;52.80
26164;DHT22;13914;48.178;11.716;2022-07-23T09:11:06;22.50;53.20
26164;DHT22;13914;48.178;11.716;2022-07-23T09:16:38;22.60;53.60
26164;DHT22;13914;48.178;11.716;2022-07-23T09:19:04;22.70;53.60
26164;DHT22;13914;48.178;11.716;2022-07-23T09:24:01;22.90;57.00
26164;DHT22;13914;48.178;11.716;2022-07-23T09:26:35;22.90;57.40
26164;DHT22;13914;48.178;11.716;2022-07-23T09:29:12;23.00;57.70
26164;DHT22;13914;48.178;11.716;2022-07-23T09:31:42;23.00;56.80
26164;DHT22;13914;48.178;11.716;2022-07-23T09:34:08;23.10;55.70
26164;DHT22;13914;48.178;11.716;2022-07-23T09:36:56;23.10;57.70
26164;DHT22;13914;48.178;11.716;2022-07-23T09:39:35;23.20;57.50
26164;DHT22;13914;48.178;11.716;2022-07-23T09:42:14;23.30;55.40
26164;DHT22;13914;48.178;11.716;2022-07-23T09:44:44;23.30;56.40
26164;DHT22;13914;48.178;11.716;2022-07-23T09:47:11;23.40;54.70
26164;DHT22;13914;48.178;11.716;2022-07-23T09:49:37;23.50;54.60
26164;DHT22;13914;48.178;11.716;2022-07-23T09:52:03;23.60;55.70
26164;DHT22;13914;48.178;11.716;2022-07-23T09:57:06;23.80;55.60
26164;DHT22;13914;48.178;11.716;2022-07-23T09:59:36;23.90;56.20
26164;DHT22;13914;48.178;11.716;2022-07-23T10:02:03;24.10;55.90
26164;DHT22;13914;48.178;11.716;2022-07-23T10:04:30;24.30;55.20
26164;DHT22;13914;48.178;11.716;2022-07-23T10:06:57;24.50;55.90
26164;DHT22;13914;48.178;11.716;2022-07-23T10:09:29;24.60;55.70
26164;DHT22;13914;48.178;11.716;2022-07-23T10:12:00;24.90;55.60
26164;DHT22;13914;48.178;11.716;2022-07-23T10:14:46;25.10;55.50
26164;DHT22;13914;48.178;11.716;2022-07-23T10:17:13;25.40;56.10
26164;DHT22;13914;48.178;11.716;2022-07-23T10:19:39;25.60;54.40
26164;DHT22;13914;48.178;11.716;2022-07-23T10:22:09;25.90;55.20
26164;DHT22;13914;48.178;11.716;2022-07-23T10:27:37;26.40;54.00
26164;DHT22;13914;48.178;11.716;2022-07-23T10:36:07;27.30;52.40
26164;DHT22;13914;48.178;11.716;2022-07-23T10:41:09;27.80;49.20
26164;DHT22;13914;48.178;11.716;2022-07-23T10:43:34;28.00;49.90
26164;DHT22;13914;48.178;11.716;2022-07-23T10:49:23;28.40;48.10
26164;DHT22;13914;48.178;11.716;2022-07-23T10:54:38;28.60;47.00
26164;DHT22;13914;48.178;11.716;2022-07-23T10:57:05;28.70;46.00
26164;DHT22;13914;48.178;11.716;2022-07-23T11:02:26;28.90;45.70
26164;DHT22;13914;48.178;11.716;2022-07-23T11:04:54;29.00;46.40
26164;DHT22;13914;48.178;11.716;2022-07-23T11:07:19;29.10;46.00
26164;DHT22;13914;48.178;11.716;2022-07-23T11:09:45;29.20;45.70
26164;DHT22;13914;48.178;11.716;2022-07-23T11:12:35;29.20;45.70
26164;DHT22;13914;48.178;11.716;2022-07-23T11:15:04;29.20;46.20
26164;DHT22;13914;48.178;11.716;2022-07-23T11:17:58;29.00;44.00
26164;DHT22;13914;48.178;11.716;2022-07-23T11:20:26;28.90;43.60
26164;DHT22;13914;48.178;11.716;2022-07-23T11:22:54;28.90;44.50
26164;DHT22;13914;48.178;11.716;2022-07-23T11:27:47;29.20;44.40
26164;DHT22;13914;48.178;11.716;2022-07-23T11:32:52;29.40;45.00
26164;DHT22;13914;48.178;11.716;2022-07-23T11:35:22;29.50;45.10
26164;DHT22;13914;48.178;11.716;2022-07-23T11:37:51;29.50;45.40
26164;DHT22;13914;48.178;11.716;2022-07-23T11:40:24;29.60;45.30
26164;DHT22;13914;48.178;11.716;2022-07-23T11:45:20;29.60;45.60
26164;DHT22;13914;48.178;11.716;2022-07-23T11:47:47;29.60;45.60
26164;DHT22;13914;48.178;11.716;2022-07-23T11:50:12;29.60;46.10
26164;DHT22;13914;48.178;11.716;2022-07-23T11:52:38;29.60;45.90
26164;DHT22;13914;48.178;11.716;2022-07-23T11:57:32;29.50;46.20
26164;DHT22;13914;48.178;11.716;2022-07-23T12:00:16;29.50;45.60
26164;DHT22;13914;48.178;11.716;2022-07-23T12:02:47;29.50;46.00
26164;DHT22;13914;48.178;11.716;2022-07-23T12:05:16;29.50;46.20
26164;DHT22;13914;48.178;11.716;2022-07-23T12:07:46;29.50;46.50
26164;DHT22;13914;48.178;11.716;2022-07-23T12:10:21;29.50;46.20
26164;DHT22;13914;48.178;11.716;2022-07-23T12:12:52;29.40;46.50
26164;DHT22;13914;48.178;11.716;2022-07-23T12:15:29;29.40;46.50
26164;DHT22;13914;48.178;11.716;2022-07-23T12:17:58;29.40;46.70
26164;DHT22;13914;48.178;11.716;2022-07-23T12:20:28;29.40;46.10
26164;DHT22;13914;48.178;11.716;2022-07-23T12:22:57;29.30;46.90
26164;DHT22;13914;48.178;11.716;2022-07-23T12:25:25;29.40;47.10
26164;DHT22;13914;48.178;11.716;2022-07-23T12:30:43;29.30;47.10
26164;DHT22;13914;48.178;11.716;2022-07-23T12:33:15;29.30;47.00
26164;DHT22;13914;48.178;11.716;2022-07-23T12:35:48;29.20;47.10
26164;DHT22;13914;48.178;11.716;2022-07-23T12:38:18;29.10;47.20
26164;DHT22;13914;48.178;11.716;2022-07-23T12:40:46;29.10;46.80
26164;DHT22;13914;48.178;11.716;2022-07-23T12:45:49;28.90;47.20
26164;DHT22;13914;48.178;11.716;2022-07-23T12:51:03;28.80;46.90
26164;DHT22;13914;48.178;11.716;2022-07-23T12:53:58;28.70;47.30
26164;DHT22;13914;48.178;11.716;2022-07-23T12:56:38;28.60;47.00
26164;DHT22;13914;48.178;11.716;2022-07-23T12:59:09;28.60;47.50
26164;DHT22;13914;48.178;11.716;2022-07-23T13:01:40;28.50;47.20
26164;DHT22;13914;48.178;11.716;2022-07-23T13:06:40;28.40;47.50
26164;DHT22;13914;48.178;11.716;2022-07-23T13:09:12;28.40;48.00
26164;DHT22;13914;48.178;11.716;2022-07-23T13:11:39;28.30;47.90
26164;DHT22;13914;48.178;11.716;2022-07-23T13:14:05;28.30;48.00
26164;DHT22;13914;48.178;11.716;2022-07-23T13:16:31;28.20;48.00
26164;DHT22;13914;48.178;11.716;2022-07-23T13:18:58;28.20;48.10
26164;DHT22;13914;48.178;11.716;2022-07-23T13:21:25;28.10;48.10
26164;DHT22;13914;48.178;11.716;2022-07-23T13:23:51;28.10;48.10
26164;DHT22;13914;48.178;11.716;2022-07-23T13:26:17;28.10;48.10
26164;DHT22;13914;48.178;11.716;2022-07-23T13:28:43;28.00;48.20
26164;DHT22;13914;48.178;11.716;2022-07-23T13:31:09;28.00;48.20
26164;DHT22;13914;48.178;11.716;2022-07-23T13:33:35;28.00;48.10
26164;DHT22;13914;48.178;11.716;2022-07-23T13:36:01;28.00;48.20
26164;DHT22;13914;48.178;11.716;2022-07-23T13:38:26;28.00;48.00
26164;DHT22;13914;48.178;11.716;2022-07-23T13:40:52;28.00;48.00
26164;DHT22;13914;48.178;11.716;2022-07-23T13:43:19;28.00;48.20
26164;DHT22;13914;48.178;11.716;2022-07-23T13:45:46;28.00;48.10
26164;DHT22;13914;48.178;11.716;2022-07-23T13:48:13;28.00;48.20
26164;DHT22;13914;48.178;11.716;2022-07-23T13:50:39;27.90;48.30
26164;DHT22;13914;48.178;11.716;2022-07-23T13:53:10;28.00;48.30
26164;DHT22;13914;48.178;11.716;2022-07-23T13:55:37;28.00;48.40
26164;DHT22;13914;48.178;11.716;2022-07-23T13:58:04;28.00;48.30
26164;DHT22;13914;48.178;11.716;2022-07-23T14:00:31;28.00;48.30
26164;DHT22;13914;48.178;11.716;2022-07-23T14:02:57;28.00;48.40
26164;DHT22;13914;48.178;11.716;2022-07-23T14:05:23;28.00;48.40
26164;DHT22;13914;48.178;11.716;2022-07-23T14:07:49;28.00;48.50
26164;DHT22;13914;48.178;11.716;2022-07-23T14:10:16;28.00;48.40
26164;DHT22;13914;48.178;11.716;2022-07-23T14:12:44;28.00;48.50
26164;DHT22;13914;48.178;11.716;2022-07-23T14:15:10;28.00;48.50
26164;DHT22;13914;48.178;11.716;2022-07-23T14:17:36;28.00;48.40
26164;DHT22;13914;48.178;11.716;2022-07-23T14:20:03;28.00;48.70
26164;DHT22;13914;48.178;11.716;2022-07-23T14:22:30;28.00;48.50
26164;DHT22;13914;48.178;11.716;2022-07-23T14:24:56;28.00;48.60
26164;DHT22;13914;48.178;11.716;2022-07-23T14:27:24;28.00;48.70
26164;DHT22;13914;48.178;11.716;2022-07-23T14:29:50;28.00;48.80
26164;DHT22;13914;48.178;11.716;2022-07-23T14:32:16;27.90;48.50
26164;DHT22;13914;48.178;11.716;2022-07-23T14:34:42;27.90;48.80
26164;DHT22;13914;48.178;11.716;2022-07-23T14:37:08;27.90;48.80
26164;DHT22;13914;48.178;11.716;2022-07-23T14:39:35;27.80;48.70
26164;DHT22;13914;48.178;11.716;2022-07-23T14:42:01;27.80;48.90
26164;DHT22;13914;48.178;11.716;2022-07-23T14:44:27;27.80;48.90
26164;DHT22;13914;48.178;11.716;2022-07-23T14:46:53;27.80;49.00
26164;DHT22;13914;48.178;11.716;2022-07-23T14:49:18;27.70;49.10
26164;DHT22;13914;48.178;11.716;2022-07-23T14:51:44;27.70;49.40
26164;DHT22;13914;48.178;11.716;2022-07-23T14:54:10;27.60;49.30
26164;DHT22;13914;48.178;11.716;2022-07-23T14:56:36;27.60;49.60
26164;DHT22;13914;48.178;11.716;2022-07-23T14:59:03;27.50;49.50
26164;DHT22;13914;48.178;11.716;2022-07-23T15:01:29;27.50;49.70
26164;DHT22;13914;48.178;11.716;2022-07-23T15:03:55;27.50;49.60
26164;DHT22;13914;48.178;11.716;2022-07-23T15:06:21;27.50;49.50
26164;DHT22;13914;48.178;11.716;2022-07-23T15:08:46;27.50;49.60
26164;DHT22;13914;48.178;11.716;2022-07-23T15:11:12;27.60;49.80
26164;DHT22;13914;48.178;11.716;2022-07-23T15:13:38;27.50;49.80
26164;DHT22;13914;48.178;11.716;2022-07-23T15:16:04;27.50;49.80
26164;DHT22;13914;48.178;11.716;2022-07-23T15:18:30;27.50;49.80
26164;DHT22;13914;48.178;11.716;2022-07-23T15:20:56;27.50;49.90
26164;DHT22;13914;48.178;11.716;2022-07-23T15:23:22;27.50;49.10
26164;DHT22;13914;48.178;11.716;2022-07-23T15:25:48;27.50;49.30
26164;DHT22;13914;48.178;11.716;2022-07-23T15:28:14;27.50;49.20
26164;DHT22;13914;48.178;11.716;2022-07-23T15:30:40;27.50;49.30
26164;DHT22;13914;48.178;11.716;2022-07-23T15:33:05;27.50;49.30
26164;DHT22;13914;48.178;11.716;2022-07-23T15:35:31;27.50;49.20
26164;DHT22;13914;48.178;11.716;2022-07-23T15:37:57;27.60;49.30
26164;DHT22;13914;48.178;11.716;2022-07-23T15:40:23;27.60;49.40
26164;DHT22;13914;48.178;11.716;2022-07-23T15:42:49;27.60;49.40
26164;DHT22;13914;48.178;11.716;2022-07-23T15:45:15;27.60;49.60
26164;DHT22;13914;48.178;11.716;2022-07-23T15:47:41;27.50;49.30
26164;DHT22;13914;48.178;11.716;2022-07-23T15:50:08;27.40;49.40
26164;DHT22;13914;48.178;11.716;2022-07-23T15:52:35;27.40;49.90
26164;DHT22;13914;48.178;11.716;2022-07-23T15:55:01;27.40;49.90
26164;DHT22;13914;48.178;11.716;2022-07-23T15:57:28;27.40;50.10
26164;DHT22;13914;48.178;11.716;2022-07-23T15:59:53;27.30;49.80
26164;DHT22;13914;48.178;11.716;2022-07-23T16:02:21;27.30;49.70
26164;DHT22;13914;48.178;11.716;2022-07-23T16:04:48;27.30;49.80